Terminal Aerodrome Forecast
Issued by NWS

Home | Current Version | Previous Version | Text Only | Print | Product List | Glossary On
Versions: 1 2 3 4 5 6 7 8 9 10 11 12 13 14 15 16 17 18 19 20 21 22 23 24
000
FTUS41 KRLX 240500
TAFCKB
TAF
KCKB 240527Z 2406/2506 00000KT P6SM SKC
     FM241600 02004KT P6SM SCT110
     FM242000 04005KT P6SM BKN100
     FM242300 05004KT P6SM SCT250
     FM250300 09004KT P6SM SCT110=

USA.gov is the U.S. government's official web portal to all federal, state and local government web resources and services.